createdAt,value
2023-01-22T00:04:13.009Z,414.22901
2023-01-22T00:09:14.722Z,410.66667
2023-01-22T00:14:16.688Z,407.15789
2023-01-22T00:19:18.155Z,421.51938
2023-01-22T00:24:19.724Z,429.03937
2023-01-22T00:29:21.209Z,417.84615
2023-01-22T00:34:22.765Z,400.2963
2023-01-22T00:39:24.689Z,387.16547
2023-01-22T00:44:26.501Z,380.87943
2023-01-22T00:49:28.074Z,368.82759
2023-01-22T00:54:29.671Z,354.66667
2023-01-22T00:59:31.179Z,390.37681
2023-01-22T01:04:32.735Z,403.70149
2023-01-22T01:09:34.453Z,417.84615
2023-01-22T01:14:36.119Z,432.88889
2023-01-22T01:19:37.613Z,436.8
2023-01-22T01:24:39.088Z,429.03937
2023-01-22T01:29:41.150Z,425.25
2023-01-22T01:34:43.034Z,421.51938
2023-01-22T01:39:44.819Z,417.84615
2023-01-22T01:44:47.005Z,440.77419
2023-01-22T01:49:48.981Z,432.88889
2023-01-22T01:54:51.026Z,436.8
2023-01-22T01:59:52.764Z,436.8
2023-01-22T02:04:54.271Z,440.77419
2023-01-22T02:09:55.749Z,444.81301
2023-01-22T02:14:57.592Z,440.77419
2023-01-22T02:19:59.093Z,436.8
2023-01-22T02:25:00.572Z,432.88889
2023-01-22T02:30:02.437Z,432.88889
2023-01-22T02:35:03.913Z,429.03937
2023-01-22T02:40:05.521Z,429.03937
2023-01-22T02:45:07.670Z,429.03937
2023-01-22T02:50:09.120Z,429.03937
2023-01-22T02:55:10.766Z,432.88889
2023-01-22T03:00:12.294Z,436.8
2023-01-22T03:05:14.124Z,429.03937
2023-01-22T03:10:15.778Z,414.22901
2023-01-22T03:15:17.508Z,432.88889
2023-01-22T03:20:19.547Z,425.25
2023-01-22T03:25:21.112Z,421.51938
2023-01-22T03:30:23.116Z,425.25
2023-01-22T03:35:24.673Z,425.25
2023-01-22T03:40:26.166Z,425.25
2023-01-22T03:45:27.838Z,425.25
2023-01-22T03:50:29.356Z,429.03937
2023-01-22T03:55:30.846Z,429.03937
2023-01-22T04:00:32.976Z,429.03937
2023-01-22T04:05:34.473Z,429.03937
2023-01-22T04:10:36.038Z,436.8
2023-01-22T04:15:38.088Z,440.77419
2023-01-22T04:20:39.875Z,432.88889
2023-01-22T04:25:41.831Z,429.03937
2023-01-22T04:30:44.070Z,436.8
2023-01-22T04:35:45.986Z,436.8
2023-01-22T04:40:47.887Z,453.09091
2023-01-22T04:45:49.642Z,448.91803
2023-01-22T04:50:51.501Z,457.33333
2023-01-22T04:55:53.318Z,453.09091
2023-01-22T05:00:54.916Z,440.77419
2023-01-22T05:05:56.950Z,440.77419
2023-01-22T05:10:58.805Z,457.33333
2023-01-22T05:16:00.547Z,448.91803
2023-01-22T05:21:02.265Z,440.77419
2023-01-22T05:26:03.780Z,432.88889
2023-01-22T05:31:05.545Z,425.25
2023-01-22T05:36:07.027Z,436.8
2023-01-22T05:41:08.832Z,429.03937
2023-01-22T05:46:11.529Z,417.84615
2023-01-22T05:51:13.363Z,417.84615
2023-01-22T05:56:15.261Z,429.03937
2023-01-22T06:01:17.227Z,432.88889
2023-01-22T06:06:18.679Z,429.03937
2023-01-22T06:11:20.355Z,429.03937
2023-01-22T06:16:22.106Z,444.81301
2023-01-22T06:21:23.620Z,479.65217
2023-01-22T06:26:25.317Z,448.91803
2023-01-22T06:31:27.138Z,448.91803
2023-01-22T06:36:28.771Z,498.95495
2023-01-22T06:41:30.415Z,489.13274
2023-01-22T06:46:32.509Z,494
2023-01-22T06:51:34.454Z,498.95495
2023-01-22T06:56:36.113Z,509.13761
2023-01-22T07:01:37.929Z,519.70093
2023-01-22T07:06:39.450Z,514.37037
2023-01-22T07:11:40.954Z,498.95495
2023-01-22T07:16:42.738Z,525.13208
2023-01-22T07:21:44.320Z,536.30769
2023-01-22T07:26:46.056Z,566.22222
2023-01-22T07:31:49.783Z,592.42105
2023-01-22T07:36:51.997Z,585.66667
2023-01-22T07:41:53.909Z,628.44444
2023-01-22T07:46:56.079Z,592.42105
2023-01-22T07:51:57.812Z,620.92308
2023-01-22T08:02:05.350Z,613.56522
2023-01-22T08:07:06.842Z,704.49383
2023-01-22T08:12:08.699Z,599.31915
2023-01-22T08:17:10.711Z,668.70588
2023-01-22T08:22:12.625Z,660.27907
2023-01-22T08:27:14.541Z,660.27907
2023-01-22T08:32:16.652Z,695.21951
2023-01-22T08:37:18.595Z,733.74359
2023-01-22T08:42:20.121Z,754.52632
2023-01-22T08:47:21.899Z,824
2023-01-22T08:52:23.675Z,714
2023-01-22T08:57:25.233Z,824
2023-01-22T09:02:26.898Z,765.33333
2023-01-22T09:07:28.612Z,733.74359
2023-01-22T09:12:30.171Z,744
2023-01-22T09:17:31.833Z,824
2023-01-22T09:22:33.455Z,921.77778
2023-01-22T09:27:35.063Z,787.83562
2023-01-22T09:32:36.909Z,863.40299
2023-01-22T09:37:38.620Z,1044
2023-01-22T09:42:40.237Z,877.33333
2023-01-22T09:47:42.247Z,891.69231
2023-01-22T09:52:44.064Z,906.5
2023-01-22T09:57:45.541Z,953.83607
2023-01-22T10:02:47.249Z,906.5
2023-01-22T10:07:48.883Z,906.5
2023-01-22T10:12:50.385Z,953.83607
2023-01-22T10:17:52.483Z,921.77778
2023-01-22T10:22:54.600Z,891.69231
2023-01-22T10:27:56.371Z,970.66667
2023-01-22T10:32:58.145Z,937.54839
2023-01-22T10:37:59.654Z,1044
2023-01-22T10:43:01.132Z,906.5
2023-01-22T10:48:02.968Z,953.83607
2023-01-22T10:53:04.540Z,1006.06897
2023-01-22T10:58:06.037Z,1254.6383
2023-01-22T11:03:07.923Z,1201.14286
2023-01-22T11:08:09.344Z,1024.70175
2023-01-22T11:13:10.756Z,891.69231
2023-01-22T11:18:12.530Z,1064
2023-01-22T11:23:13.997Z,1044
2023-01-22T11:28:15.589Z,1024.70175
2023-01-22T11:33:17.521Z,1254.6383
2023-01-22T11:38:19.277Z,1128.61538
2023-01-22T11:43:20.741Z,1283.13043
2023-01-22T11:48:22.526Z,1227.33333
2023-01-22T11:53:23.947Z,1151.84314
2023-01-22T11:58:25.443Z,1044
2023-01-22T12:03:27.020Z,1201.14286
2023-01-22T12:08:28.479Z,1044
2023-01-22T12:13:30.044Z,906.5
2023-01-22T12:18:31.710Z,906.5
2023-01-22T12:23:33.231Z,836.75362
2023-01-22T12:28:34.869Z,811.60563
2023-01-22T12:33:36.329Z,849.88235
2023-01-22T12:38:37.936Z,877.33333
2023-01-22T12:43:39.401Z,704.49383
2023-01-22T12:48:41.400Z,686.16867
2023-01-22T12:53:42.860Z,723.74684
2023-01-22T12:58:44.795Z,733.74359
2023-01-22T13:03:46.388Z,811.60563
2023-01-22T13:08:48.308Z,787.83562
2023-01-22T13:13:50.283Z,891.69231
2023-01-22T13:18:52.370Z,863.40299
2023-01-22T13:23:54.206Z,921.77778
2023-01-22T13:28:56.163Z,953.83607
2023-01-22T13:33:58.232Z,970.66667
2023-01-22T13:39:00.108Z,1084.74074
2023-01-22T13:44:02.073Z,988.0678
2023-01-22T13:49:04.162Z,1106.26415
2023-01-22T13:54:06.015Z,1084.74074
2023-01-22T13:59:07.786Z,0
2023-01-22T14:04:09.683Z,0
2023-01-22T14:09:11.501Z,1106.26415
2023-01-22T14:14:13.293Z,0
2023-01-22T14:19:15.294Z,0
2023-01-22T14:24:17.138Z,0
2023-01-22T14:29:18.917Z,0
2023-01-22T14:34:20.955Z,0
2023-01-22T14:39:22.396Z,0
2023-01-22T14:44:23.991Z,0
2023-01-22T14:49:25.756Z,0
2023-01-22T14:54:27.520Z,0
2023-01-22T14:59:29.055Z,0
2023-01-22T15:04:30.612Z,0
2023-01-22T15:09:32.194Z,0
2023-01-22T15:14:33.741Z,0
2023-01-22T15:19:41.231Z,0
2023-01-22T15:24:43.333Z,0
2023-01-22T15:29:45.098Z,0
2023-01-22T15:34:46.947Z,0
2023-01-22T15:39:48.708Z,0
2023-01-22T15:44:50.489Z,0
2023-01-22T15:49:52.478Z,0
2023-01-22T15:54:54.548Z,0
2023-01-22T15:59:56.471Z,0
2023-01-22T16:04:58.585Z,0
2023-01-22T16:10:00.437Z,0
2023-01-22T16:15:02.229Z,0
2023-01-22T16:20:04.197Z,0
2023-01-22T16:25:06.175Z,970.66667
2023-01-22T16:30:08.187Z,937.54839
2023-01-22T16:35:10.198Z,937.54839
2023-01-22T16:40:11.990Z,921.77778
2023-01-22T16:45:13.749Z,849.88235
2023-01-22T16:50:15.454Z,733.74359
2023-01-22T16:55:16.951Z,787.83562
2023-01-22T17:00:19.269Z,787.83562
2023-01-22T17:05:21.535Z,744
2023-01-22T17:10:23.032Z,776.43243
2023-01-22T17:15:24.531Z,754.52632
2023-01-22T17:20:26.302Z,765.33333
2023-01-22T17:25:27.855Z,628.44444
2023-01-22T17:30:29.617Z,572.57143
2023-01-22T17:35:31.601Z,560
2023-01-22T17:40:33.392Z,579.05155
2023-01-22T17:45:35.042Z,494
2023-01-22T17:50:37.146Z,484.35088
2023-01-22T17:55:39.089Z,448.91803
2023-01-22T18:00:40.731Z,509.13761
2023-01-22T18:05:42.709Z,475.03448
2023-01-22T18:10:44.612Z,572.57143
2023-01-22T18:15:46.639Z,644
2023-01-22T18:20:48.853Z,660.27907
2023-01-22T18:25:50.635Z,668.70588
2023-01-22T18:30:52.584Z,686.16867
2023-01-22T18:35:54.694Z,668.70588
2023-01-22T18:40:56.516Z,677.33333
2023-01-22T18:45:58.163Z,660.27907
2023-01-22T18:51:00.197Z,704.49383
2023-01-22T18:56:02.059Z,677.33333
2023-01-22T19:01:03.868Z,686.16867
2023-01-22T19:06:05.805Z,686.16867
2023-01-22T19:11:07.850Z,686.16867
2023-01-22T19:16:09.794Z,677.33333
2023-01-22T19:21:11.815Z,677.33333
2023-01-22T19:26:13.615Z,660.27907
2023-01-22T19:31:15.383Z,660.27907
2023-01-22T19:36:17.589Z,660.27907
2023-01-22T19:41:19.085Z,652.04598
2023-01-22T19:46:20.933Z,628.44444
2023-01-22T19:51:23.004Z,636.13483
2023-01-22T19:56:24.548Z,620.92308
2023-01-22T20:01:26.235Z,566.22222
2023-01-22T20:06:28.185Z,542.05825
2023-01-22T20:11:29.867Z,514.37037
2023-01-22T20:16:31.572Z,494
2023-01-22T20:21:33.275Z,489.13274
2023-01-22T20:26:34.844Z,470.49573
2023-01-22T20:31:36.379Z,461.64706
2023-01-22T20:36:37.956Z,444.81301
2023-01-22T20:41:39.404Z,432.88889
2023-01-22T20:46:41.086Z,440.77419
2023-01-22T20:51:42.854Z,453.09091
2023-01-22T20:56:44.461Z,453.09091
2023-01-22T21:01:46.147Z,461.64706
2023-01-22T21:06:48.388Z,453.09091
2023-01-22T21:11:49.894Z,436.8
2023-01-22T21:16:51.692Z,425.25
2023-01-22T21:27:04.023Z,400.2963
2023-01-22T21:32:05.728Z,421.51938
2023-01-22T21:37:07.274Z,425.25
2023-01-22T21:42:09.080Z,444.81301
2023-01-22T21:47:11.194Z,470.49573
2023-01-22T21:52:12.737Z,479.65217
2023-01-22T21:57:14.510Z,484.35088
2023-01-22T22:02:16.610Z,475.03448
2023-01-22T22:07:18.597Z,470.49573
2023-01-22T22:12:20.469Z,489.13274
2023-01-22T22:17:22.343Z,509.13761
2023-01-22T22:22:23.810Z,536.30769
2023-01-22T22:27:27.671Z,542.05825
2023-01-22T22:32:29.304Z,525.13208
2023-01-22T22:37:30.921Z,525.13208
2023-01-22T22:42:32.365Z,519.70093
2023-01-22T22:47:34.073Z,509.13761
2023-01-22T22:52:35.590Z,484.35088
2023-01-22T22:57:37.685Z,461.64706
2023-01-22T23:02:39.430Z,453.09091
2023-01-22T23:07:41.111Z,436.8
2023-01-22T23:12:43.155Z,421.51938
2023-01-22T23:17:44.929Z,421.51938
2023-01-22T23:22:46.693Z,425.25
2023-01-22T23:27:49.594Z,417.84615
2023-01-22T23:32:51.453Z,414.22901
2023-01-22T23:37:53.259Z,407.15789
2023-01-22T23:42:54.942Z,396.94118
2023-01-22T23:47:56.831Z,400.2963
2023-01-22T23:52:58.594Z,410.66667
2023-01-22T23:58:01.070Z,414.22901
